createdAt,value
2023-03-29T00:00:59.386Z,5.94
2023-03-29T00:06:17.900Z,5.94
2023-03-29T00:11:36.740Z,5.94
2023-03-29T00:16:55.473Z,5.94
2023-03-29T00:22:14.267Z,5.87
2023-03-29T00:27:32.969Z,5.87
2023-03-29T00:32:51.751Z,5.81
2023-03-29T00:38:10.289Z,5.81
2023-03-29T00:43:29.009Z,5.87
2023-03-29T00:48:47.822Z,5.87
2023-03-29T00:54:06.604Z,5.81
2023-03-29T00:59:24.843Z,5.81
2023-03-29T01:04:43.479Z,5.87
2023-03-29T01:10:02.129Z,5.87
2023-03-29T01:15:20.831Z,5.94
2023-03-29T01:20:39.068Z,5.94
2023-03-29T01:25:57.861Z,5.94
2023-03-29T01:31:17.796Z,5.94
2023-03-29T01:36:36.375Z,5.87
2023-03-29T01:41:54.995Z,5.81
2023-03-29T01:47:13.724Z,5.81
2023-03-29T01:52:31.915Z,5.81
2023-03-29T01:57:50.483Z,5.87
2023-03-29T02:03:09.438Z,5.94
2023-03-29T02:08:28.069Z,6
2023-03-29T02:13:46.819Z,6.06
2023-03-29T02:19:05.669Z,6.06
2023-03-29T02:24:24.334Z,6.19
2023-03-29T02:29:43.000Z,6.31
2023-03-29T02:35:01.666Z,6.19
2023-03-29T02:40:20.313Z,6.31
2023-03-29T02:45:38.641Z,6.25
2023-03-29T02:50:57.365Z,6.31
2023-03-29T02:56:16.131Z,6.25
2023-03-29T03:01:34.746Z,6.31
2023-03-29T03:06:53.530Z,6.31
2023-03-29T03:12:12.211Z,6.25
2023-03-29T03:17:30.820Z,6.25
2023-03-29T03:22:49.561Z,6.37
2023-03-29T03:28:07.895Z,6.44
2023-03-29T03:33:26.559Z,6.44
2023-03-29T03:38:44.897Z,6.44
2023-03-29T03:44:03.568Z,6.44
2023-03-29T03:49:22.171Z,6.37
2023-03-29T03:54:41.078Z,6.31
2023-03-29T03:59:59.696Z,6.31
2023-03-29T04:05:18.279Z,6.37
2023-03-29T04:10:36.499Z,6.31
2023-03-29T04:15:55.354Z,6.25
2023-03-29T04:21:15.405Z,6.31
2023-03-29T04:26:33.847Z,6.19
2023-03-29T04:31:52.598Z,6.06
2023-03-29T04:37:11.134Z,5.87
2023-03-29T04:42:29.434Z,5.75
2023-03-29T04:47:48.040Z,5.5
2023-03-29T04:53:06.253Z,5.37
2023-03-29T04:58:27.202Z,5.44
2023-03-29T05:03:43.650Z,5.44
2023-03-29T05:09:02.459Z,5.5
2023-03-29T05:14:20.839Z,5.56
2023-03-29T05:19:39.515Z,5.81
2023-03-29T05:24:58.224Z,5.94
2023-03-29T05:30:18.139Z,6.12
2023-03-29T05:35:38.467Z,6.31
2023-03-29T05:40:58.047Z,6.44
2023-03-29T05:51:15.422Z,6.5
2023-03-29T05:56:34.170Z,6.62
2023-03-29T06:01:52.740Z,6.62
2023-03-29T06:07:12.546Z,6.62
2023-03-29T06:12:31.227Z,6.69
2023-03-29T06:17:49.955Z,6.87
2023-03-29T06:23:08.734Z,6.94
2023-03-29T06:28:27.486Z,7.12
2023-03-29T06:33:46.320Z,7.37
2023-03-29T06:39:05.141Z,7.69
2023-03-29T06:44:23.891Z,7.81
2023-03-29T06:49:42.556Z,8
2023-03-29T06:55:01.303Z,8.19
2023-03-29T07:00:23.306Z,8.44
2023-03-29T07:05:38.454Z,8.63
2023-03-29T07:10:57.029Z,8.69
2023-03-29T07:16:15.974Z,9.19
2023-03-29T07:21:36.656Z,9.44
2023-03-29T07:27:03.053Z,9.63
2023-03-29T07:32:11.398Z,10
2023-03-29T07:37:29.620Z,9.88
2023-03-29T07:42:48.219Z,10.13
2023-03-29T07:48:06.508Z,10.06
2023-03-29T07:53:24.582Z,10.06
2023-03-29T07:58:43.246Z,10
2023-03-29T08:04:02.243Z,10.19
2023-03-29T08:09:20.993Z,10.31
2023-03-29T08:14:39.716Z,10.5
2023-03-29T08:19:58.386Z,10.44
2023-03-29T08:25:16.898Z,10.63
2023-03-29T08:30:35.484Z,10.56
2023-03-29T08:35:54.275Z,10.63
2023-03-29T08:41:13.091Z,10.88
2023-03-29T08:46:35.249Z,10.94
2023-03-29T08:51:50.514Z,10.94
2023-03-29T08:57:09.302Z,10.94
2023-03-29T09:02:27.683Z,10.81
2023-03-29T09:07:46.000Z,10.44
2023-03-29T09:13:04.838Z,10.56
2023-03-29T09:18:23.496Z,10.81
2023-03-29T09:23:42.113Z,10.88
2023-03-29T09:29:00.686Z,10.81
2023-03-29T09:34:19.092Z,10.75
2023-03-29T09:39:38.977Z,11.38
2023-03-29T09:44:58.006Z,11.81
2023-03-29T09:50:29.989Z,12.75
2023-03-29T09:55:36.350Z,12.75
2023-03-29T10:00:54.919Z,12.81
2023-03-29T10:06:14.243Z,13.56
2023-03-29T10:11:33.003Z,14.25
2023-03-29T10:16:51.011Z,14.25
2023-03-29T10:22:09.826Z,14.19
2023-03-29T10:27:28.447Z,14.44
2023-03-29T10:37:52.365Z,15.5
2023-03-29T10:43:11.786Z,16.75
2023-03-29T10:48:30.741Z,16.37
2023-03-29T10:53:49.396Z,15.94
2023-03-29T10:59:07.427Z,15.88
2023-03-29T11:04:25.899Z,15.94
2023-03-29T11:09:44.698Z,15.5
2023-03-29T11:15:03.086Z,15.94
2023-03-29T11:20:22.195Z,16.69
2023-03-29T11:25:41.330Z,17.31
2023-03-29T11:31:01.059Z,17.75
2023-03-29T11:36:20.250Z,18.94
2023-03-29T11:41:38.456Z,17.75
2023-03-29T11:46:56.535Z,16.87
2023-03-29T11:52:16.682Z,17.94
2023-03-29T11:57:34.795Z,17.25
2023-03-29T12:02:53.478Z,17.19
2023-03-29T12:08:11.104Z,17
2023-03-29T12:13:29.408Z,17.31
2023-03-29T12:18:47.901Z,16.75
2023-03-29T12:24:06.682Z,17.31
2023-03-29T12:29:26.951Z,17.94
2023-03-29T12:34:47.126Z,18.62
2023-03-29T12:40:04.424Z,17.31
2023-03-29T12:45:21.792Z,17.12
2023-03-29T12:50:40.832Z,17.94
2023-03-29T12:56:01.266Z,18.56
2023-03-29T13:01:19.259Z,19.25
2023-03-29T13:06:37.338Z,18.12
2023-03-29T13:11:55.026Z,18.06
2023-03-29T13:17:18.611Z,18.25
2023-03-29T13:22:32.803Z,20.44
2023-03-29T13:27:51.457Z,21.37
2023-03-29T13:33:09.962Z,20.94
2023-03-29T13:38:28.415Z,20.37
2023-03-29T13:43:46.738Z,20.75
2023-03-29T13:49:05.471Z,21.19
2023-03-29T13:54:24.201Z,20.06
2023-03-29T13:59:42.213Z,19.19
2023-03-29T14:05:00.938Z,18.62
2023-03-29T14:10:19.844Z,18.37
2023-03-29T14:15:37.910Z,17.56
2023-03-29T14:26:04.262Z,19.87
2023-03-29T14:31:22.426Z,19
2023-03-29T14:36:40.538Z,17.62
2023-03-29T14:41:59.305Z,17.5
2023-03-29T14:47:17.829Z,17.25
2023-03-29T14:52:36.494Z,17.12
2023-03-29T14:57:55.072Z,16.75
2023-03-29T15:03:13.723Z,16.62
2023-03-29T15:08:31.713Z,16.5
2023-03-29T15:13:50.529Z,16.44
2023-03-29T15:19:09.202Z,16.87
2023-03-29T15:24:27.366Z,16.56
2023-03-29T15:29:46.059Z,16.56
2023-03-29T15:35:04.337Z,16.56
2023-03-29T15:40:22.946Z,16.44
2023-03-29T15:45:41.649Z,16.56
2023-03-29T15:51:02.707Z,16.56
2023-03-29T15:56:18.714Z,16.31
2023-03-29T16:01:37.539Z,16.12
2023-03-29T16:06:55.957Z,16.12
2023-03-29T16:12:14.381Z,16.06
2023-03-29T16:17:33.073Z,16
2023-03-29T16:22:51.641Z,15.88
2023-03-29T16:28:10.662Z,15.69
2023-03-29T16:33:29.215Z,15.56
2023-03-29T16:38:47.866Z,15.5
2023-03-29T16:44:06.533Z,15.25
2023-03-29T16:49:25.190Z,14.94
2023-03-29T16:54:43.309Z,14.56
2023-03-29T17:00:02.195Z,14.31
2023-03-29T17:05:20.321Z,14.13
2023-03-29T17:10:38.849Z,13.94
2023-03-29T17:15:57.561Z,13.81
2023-03-29T17:21:16.128Z,13.69
2023-03-29T17:26:34.999Z,13.56
2023-03-29T17:31:53.455Z,13.44
2023-03-29T17:37:12.486Z,13.31
2023-03-29T17:42:30.980Z,13.19
2023-03-29T17:47:49.634Z,13.06
2023-03-29T17:53:08.202Z,12.94
2023-03-29T17:58:26.476Z,12.88
2023-03-29T18:03:45.164Z,12.81
2023-03-29T18:09:03.426Z,12.69
2023-03-29T18:14:21.906Z,12.56
2023-03-29T18:19:40.643Z,12.5
2023-03-29T18:24:59.349Z,12.44
2023-03-29T18:30:17.956Z,12.44
2023-03-29T18:35:36.719Z,12.37
2023-03-29T18:40:55.446Z,12.37
2023-03-29T18:46:14.230Z,12.31
2023-03-29T18:51:32.744Z,12.37
2023-03-29T18:56:51.175Z,12.37
2023-03-29T19:02:09.465Z,12.31
2023-03-29T19:07:28.081Z,12.25
2023-03-29T19:12:46.851Z,12.19
2023-03-29T19:18:05.553Z,12.13
2023-03-29T19:23:23.807Z,12.19
2023-03-29T19:28:42.518Z,12.25
2023-03-29T19:34:00.934Z,12.37
2023-03-29T19:39:19.241Z,12.37
2023-03-29T19:44:37.828Z,12.25
2023-03-29T19:49:56.436Z,12.31
2023-03-29T19:55:14.685Z,12.25
2023-03-29T20:00:33.452Z,12.31
2023-03-29T20:05:51.981Z,12.37
2023-03-29T20:11:10.787Z,12.31
2023-03-29T20:16:29.403Z,12.25
2023-03-29T20:21:48.075Z,12.19
2023-03-29T20:32:10.965Z,12.13
2023-03-29T20:37:29.233Z,12.25
2023-03-29T20:42:47.939Z,12.37
2023-03-29T20:48:06.785Z,12.44
2023-03-29T20:53:25.285Z,12.44
2023-03-29T20:58:43.944Z,12.37
2023-03-29T21:04:02.330Z,12.37
2023-03-29T21:09:20.887Z,12.37
2023-03-29T21:14:40.473Z,12.44
2023-03-29T21:19:57.774Z,12.44
2023-03-29T21:25:16.306Z,12.44
2023-03-29T21:30:34.891Z,12.44
2023-03-29T21:35:53.171Z,12.37
2023-03-29T21:41:11.785Z,12.31
2023-03-29T21:46:30.443Z,12.63
2023-03-29T21:51:49.230Z,12.81
2023-03-29T21:57:08.025Z,12.81
2023-03-29T22:02:26.328Z,12.94
2023-03-29T22:07:45.074Z,13
2023-03-29T22:13:03.935Z,13
2023-03-29T22:18:25.231Z,13
2023-03-29T22:23:41.320Z,12.88
2023-03-29T22:28:59.704Z,12.94
2023-03-29T22:34:18.301Z,12.94
2023-03-29T22:39:36.912Z,12.81
2023-03-29T22:44:55.490Z,12.75
2023-03-29T22:50:14.181Z,12.75
2023-03-29T22:55:32.818Z,12.69
2023-03-29T23:00:51.452Z,12.75
2023-03-29T23:06:09.709Z,12.88
2023-03-29T23:11:28.402Z,13
2023-03-29T23:16:47.149Z,13.06
2023-03-29T23:22:05.832Z,13.19
2023-03-29T23:27:24.478Z,13.19
2023-03-29T23:32:45.654Z,13.25
2023-03-29T23:38:01.866Z,13.25
2023-03-29T23:43:20.163Z,13.31
2023-03-29T23:48:38.578Z,12.88
2023-03-29T23:53:57.206Z,12.88
2023-03-29T23:59:17.279Z,12.81
